Tiempo atmosférico en la estación meteorológica de A Pobra de Trives, Ourense (840 m.)



Fecha
DESCASC
Temp. máxima en grados centígrados (hora)
DESCASC
Temp. mínima en grados centígrados (hora)
DESCASC
Temp. media en grados centígrados
DESCASC
Racha de viento máxima en m/sg (hora)
DESCASC
Velocidad máxima media en intervalos de 10 minutos(hora)
DESCASC
Precipitaciones diarias en mm
DESCASC
Precipitaciones de 00:00 a 06:00 en mm
DESCASC
Precipitaciones de 06:00 a 12:00 en mm
DESCASC
Precipitaciones de 12:00 a 18:00 en mm
DESCASC
Precipitaciones de 18:00 a 24:00 en mm
DESCASC
22-11-2020 15.2 (15:10) 1.9 (08:00) 8.5 5.56 (23:00) 3.06 (21:40) 0 0 0 0 0
21-11-2020 15.6 (15:30) 2.8 (07:50) 9.2 4.44 (13:20) 2.78 (02:50) 0 0 0 0 0
20-11-2020 13.2 (15:00) 5.4 (23:30) 9.3 3.89 (22:30) 2.5 (01:50) 0 0 0 0 0
19-11-2020 17.2 (15:10) 6.3 (00:00) 11.8 7.5 (17:40) 4.17 (17:30) 0 0 0 0 0
18-11-2020 17.8 (14:20) 8.7 (00:00) 13.2 6.67 (02:50) 3.61 (13:20) 0 0 0 0 0
17-11-2020 16.9 (16:00) 3.1 (00:00) 10 8.61 (16:00) 3.89 (16:00) 0 0 0 0 0
16-11-2020 13 (16:00) 4.3 (00:00) 8.7 5 (00:30) 2.5 (02:40) 0 0 0 0 0
15-11-2020 15 (11:00) 10 (00:00) 12.5 14.44 (08:50) 6.39 (08:50) 9.6 0 1.6 5.8 2.2
14-11-2020 16.1 (14:10) 6.8 (00:00) 11.5 8.06 (14:20) 3.61 (02:50) 0 0 0 0 0
13-11-2020 16 (14:40) 5.8 (00:00) 10.9 5 (16:40) 3.06 (23:10) 0 0 0 0 0
12-11-2020 15.8 (16:00) 6.1 (00:00) 11 4.44 (15:20) 2.5 (14:10) 0 0 0 0 0
11-11-2020 11.3 (13:40) 4.8 (00:00) 8.1 7.78 (09:50) 4.17 (12:00) 0 0 0 0 0
10-11-2020 12.7 (15:00) 4.4 (00:00) 8.5 5.28 (13:20) 2.5 (03:00) 0 0 0 0 0
09-11-2020 15.3 (15:10) 5.5 (00:00) 10.4 7.78 (11:50) 3.89 (12:20) 0.8 0 0.8 0 0
08-11-2020 16 (14:00) 10 (00:00) 13 10 (08:20) 3.89 (06:00) 0.8 0.2 0.6 0 0
07-11-2020 16.4 (14:00) 8 (00:00) 12.2 9.72 (14:40) 4.44 (12:00) 0.2 0 0.2 0 0
06-11-2020 15.3 (15:00) 9.5 (00:00) 12.4 21.11 (20:30) 6.39 (15:20) 13.4 0.6 0.2 0.2 12.4
05-11-2020 12.3 (21:10) 5.7 (00:00) 9 14.72 (00:40) 7.78 (00:40) 0.2 0 0 0 0.2
04-11-2020 9.4 (13:30) -0.5 (-00:0) 4.4 14.17 (23:59) 7.22 (23:40) 0.2 0 0 0.2 0
03-11-2020 10.3 (15:10) 3.9 (00:00) 7.1 7.5 (16:50) 3.33 (16:20) 0 0 0 0 0
02-11-2020 19.7 (13:00) 7.4 (00:00) 13.6 8.06 (13:40) 3.89 (14:50) 4.2 0.4 0 3.4 0.4
01-11-2020 16.2 (16:00) 12.4 (00:00) 14.3 5 (07:10) 2.78 (15:20) 0 0 0 0 0
31-10-2020 19.3 (14:00) 8.8 (00:00) 14 8.33 (13:30) 4.17 (13:40) 0 0 0 0 0
30-10-2020 17.3 (15:50) 3.7 (00:00) 10.5 5 (23:20) 2.5 (19:00) 0.2 0 0.2 0 0
29-10-2020 14.6 (14:50) 2.2 (00:00) 8.4 4.17 (06:00) 3.33 (06:00) 0 0 0 0 0
28-10-2020 14.7 (13:10) 5.8 (00:00) 10.3 8.61 (13:20) 3.89 (13:10) 0.8 0.4 0.4 0 0
27-10-2020 11.9 (17:50) 6.5 (00:00) 9.2 7.5 (18:40) 3.06 (18:40) 1.8 0 0 1.6 0.2
26-10-2020 10.2 (14:40) 3.1 (00:00) 6.6 10.56 (14:30) 4.72 (14:30) 3 2.8 0 0.2 0

Gráficas

Temp. máximas Temp. mínimas Temp. medias Precipitaciones Rachas de viento máximas Velocidades máximas media en intervalos de 10 minutos

Datos horarios

Fecha y hora oficial Temperatura (ºC) Velocidad del viento (km/h) Dirección del viento Racha (km/h) Dirección de racha Precipitación (mm) Presión (hPa) Tendencia (hPa) Humedad (%)
2020-11-24 23:00:00 9 8 Este 24 Sudeste 0 918.3 -1.6 80
2020-11-24 22:00:00 8.9 5 Este 28 Este 0 918.7 -1.6 81
2020-11-24 21:00:00 8.9 14 Sudeste 28 Este 0 919.2 -1 80
2020-11-24 20:00:00 8.8 4 Este 20 Sur 0 919.9 -0.5 78
2020-11-24 19:00:00 8.3 7 Este 22 Norte 0 920.3 -0.8 80
2020-11-24 18:00:00 8.7 6 Norte 13 Norte 0 920.2 -- 77
2020-11-24 17:00:00 11.2 3 Norte 18 Sudoeste 0 920.4 -- 64
2020-11-24 16:00:00 12.7 6 Sudoeste 21 Sudoeste 0 921.1 -- 59
2020-11-24 15:00:00 13.2 11 Oeste 24 Oeste 0 921.8 -- 56
2020-11-24 14:00:00 10.4 7 Sudeste 19 Este 0 922.5 -- 69
2020-11-24 13:00:00 10.5 6 Este 14 Este 0 923.4 -- 68
2020-11-24 12:00:00 9.6 5 Este 12 Sudeste 0 924.5 -- 69
2020-11-24 11:00:00 8.5 4 Sudeste 8 Sudeste 0 925.1 -- 66
2020-11-24 10:00:00 5.2 3 Noroeste 9 Oeste 0 925.3 -- 80
2020-11-24 09:00:00 4.2 5 Oeste 9 Noroeste 0 925 -- 80
2020-11-24 08:00:00 4.4 2 Oeste 9 Noroeste 0 924.8 -- 79
2020-11-24 07:00:00 4.2 6 Noroeste 8 Oeste 0 924.8 -- 80
2020-11-24 06:00:00 3.9 4 Oeste 11 Noroeste 0 924.9 -- 80
2020-11-24 05:00:00 4 3 Noroeste 9 Noroeste 0 925 -- 78
2020-11-24 04:00:00 4.2 7 Noroeste 12 Noroeste 0 925.5 -- 75
2020-11-24 03:00:00 4.3 5 Noroeste 10 Noroeste 0 925.9 -- 73
2020-11-24 02:00:00 4.6 8 Noroeste 11 Noroeste 0 926.5 -- 72
2020-11-24 01:00:00 5 7 Noroeste 13 Noroeste 0 926.9 -- 74
2020-11-24 00:00:00 4.5 5 Noroeste 13 Noroeste 0 927.4 -- 78
2020-11-23 23:00:00 4.6 6 Noroeste 13 Noroeste 0 927.6 -- 79
2020-11-23 22:00:00 5.3 8 Noroeste 11 Noroeste 0 927.9 -- 79
2020-11-23 21:00:00 6.1 6 Noroeste 10 Noroeste 0 928.2 -- 77
2020-11-23 20:00:00 7.8 7 Noroeste 9 Noroeste 0 928.3 -- 74
2020-11-23 19:00:00 9.8 4 Noroeste 6 Noroeste 0 928.3 -- 65
2020-11-23 18:00:00 10.9 0 Calma 6 Este 0 928 -- 63
2020-11-23 17:00:00 12 5 Este 8 Este 0 928.1 -- 61
2020-11-23 16:00:00 13.9 4 Este 8 Sur 0 928.1 -- 54
2020-11-23 15:00:00 13.7 5 Este 10 Este 0 928.6 -- 54
2020-11-23 14:00:00 13.1 4 Nordeste 12 Sudeste 0 929.2 -- 51
2020-11-23 13:00:00 12.4 5 Nordeste 9 Este 0 930 -- 51
2020-11-23 12:00:00 10.8 5 Este 11 Sudeste 0 930.8 -- 57
2020-11-23 11:00:00 8.4 3 Nordeste 8 Noroeste 0 931 -- 64
2020-11-23 10:00:00 4.4 5 Noroeste 11 Noroeste 0 930.9 -- 79
2020-11-23 09:00:00 1.7 6 Noroeste 10 Noroeste 0 930.5 -- 84
2020-11-23 08:00:00 1 6 Noroeste 13 Noroeste 0 930.3 -- 85
2020-11-23 07:00:00 1.4 8 Noroeste 15 Noroeste 0 930 -- 85
2020-11-23 06:00:00 1.5 7 Noroeste 12 Oeste 0 930.1 -- 84
2020-11-23 05:00:00 2 8 Noroeste 13 Oeste 0 930.1 -- 83
2020-11-23 04:00:00 2.2 8 Noroeste 11 Noroeste 0 930.5 -- 82
2020-11-23 03:00:00 2.7 8 Noroeste 14 Noroeste 0 930.5 -- 81
2020-11-23 02:00:00 3.6 8 Noroeste 15 Noroeste 0 930.6 -- 78
2020-11-23 01:00:00 3.9 9 Noroeste 14 Noroeste 0 930.9 -- 78
2020-11-23 00:00:00 4.6 5 Oeste 15 Oeste 0 931 -- 74
2020-11-22 23:00:00 5.3 11 Noroeste 20 Noroeste 0 931 -- 74
2020-11-22 22:00:00 5.4 10 Noroeste 17 Noroeste 0 931 -- 75
2020-11-22 21:00:00 6.1 10 Noroeste 18 Oeste 0 930.9 -- 73
2020-11-22 20:00:00 8 11 Oeste 18 Oeste 0 930.8 -- 64
2020-11-22 19:00:00 9.4 9 Oeste 15 Oeste 0 930.5 -- 56
2020-11-22 18:00:00 10.8 8 Oeste 19 Oeste 0 930 -- 47
2020-11-22 17:00:00 12.3 9 Oeste 18 Noroeste 0 929.7 -- 45
2020-11-22 16:00:00 14.3 8 Oeste 18 Oeste 0 929.6 -- 41
2020-11-22 15:00:00 15.1 5 Oeste 13 Oeste 0 929.6 -- 41
2020-11-22 14:00:00 14.6 6 Sudeste 12 Sudeste 0 930.1 -- 40
2020-11-22 13:00:00 14.4 5 Este 9 Sudeste 0 930.6 -- 47
2020-11-22 12:00:00 13 3 Sudeste 8 Sudeste 0 931.2 -- 45
2020-11-22 11:00:00 10 3 Este 6 Este 0 931.3 -- 55
2020-11-22 10:00:00 6.1 5 Noroeste 12 Noroeste 0 931.1 -- 66
2020-11-22 09:00:00 2.9 9 Noroeste 15 Oeste 0 930.7 -- 71
2020-11-22 08:00:00 1.9 8 Noroeste 17 Noroeste 0 930.5 -- 73
2020-11-22 07:00:00 2.6 8 Noroeste 12 Noroeste 0 930.3 -- 72
2020-11-22 06:00:00 3.1 6 Noroeste 13 Oeste 0 930 -- 71
2020-11-22 05:00:00 3.1 7 Noroeste 12 Noroeste 0 929.9 -- 76
2020-11-22 04:00:00 3.3 8 Noroeste 13 Noroeste 0 929.6 -- 79
2020-11-22 03:00:00 4 7 Noroeste 14 Noroeste 0 929.4 -- 79
2020-11-22 02:00:00 4.6 7 Noroeste 12 Noroeste 0 929.3 -- 79
2020-11-22 01:00:00 4.6 8 Noroeste 13 Noroeste 0 929.5 -- 82
2020-11-22 00:00:00 5.1 9 Noroeste 14 Noroeste 0 929.6 -- 82
2020-11-21 23:00:00 5.6 8 Noroeste 13 Noroeste 0 929.6 -- 81
2020-11-21 22:00:00 7.4 8 Noroeste 16 Noroeste 0 929.4 -- 76
2020-11-21 21:00:00 7.4 9 Noroeste 15 Noroeste 0 929.3 -- 78
2020-11-21 20:00:00 8.8 7 Noroeste 11 Noroeste 0 929.1 -- 74
2020-11-21 19:00:00 10.9 5 Noroeste 9 Noroeste 0 928.8 -- 66
2020-11-21 18:00:00 12.8 0 Calma 7 Este 0 928.5 -- 58
2020-11-21 17:00:00 13.9 5 Este 9 Este 0 928.4 -- 55
2020-11-21 16:00:00 15.1 6 Este 9 Este 0 928.4 -- 50
2020-11-21 15:00:00 15.2 5 Nordeste 12 Este 0 928.8 -- 48
2020-11-21 14:00:00 14.5 6 Este 16 Nordeste 0 929.5 -- 52
2020-11-21 13:00:00 13.8 6 Este 14 Nordeste 0 930.2 -- 51
2020-11-21 12:00:00 12 5 Nordeste 14 Nordeste 0 931 -- 58
2020-11-21 11:00:00 10 6 Nordeste 14 Este 0 931.2 -- 70
2020-11-21 10:00:00 7 4 Oeste 10 Noroeste 0 930.9 -- 82
2020-11-21 09:00:00 4.5 5 Norte 15 Noroeste 0 930.8 -- 92
2020-11-21 08:00:00 3.3 6 Noroeste 11 Noroeste 0 930.5 -- 94
2020-11-21 07:00:00 3.1 8 Noroeste 11 Noroeste 0 930.4 -- 93
2020-11-21 06:00:00 3.3 7 Noroeste 10 Noroeste 0 930.4 -- 93
2020-11-21 05:00:00 3.5 9 Noroeste 14 Noroeste 0 930.4 -- 92
2020-11-21 04:00:00 3.8 7 Noroeste 10 Noroeste 0 930.9 -- 92
2020-11-21 03:00:00 4.4 9 Noroeste 13 Noroeste 0 931 -- 92
2020-11-21 02:00:00 4.6 6 Noroeste 13 Noroeste 0 931.5 -- 92
2020-11-21 01:00:00 5 6 Noroeste 9 Noroeste 0 931.6 -- 92
2020-11-21 00:00:00 5.9 2 Noroeste 11 Noroeste 0 932.1 -- 89
2020-11-20 23:00:00 5.6 8 Noroeste 14 Noroeste 0 932.2 -- 92
2020-11-20 22:00:00 6.4 4 Noroeste 8 Noroeste 0 932.5 -- 88
2020-11-20 21:00:00 7.5 4 Nordeste 11 Nordeste 0 932.8 -- 86
2020-11-20 20:00:00 8.5 3 Sudeste 7 Sur 0 932.9 -- 83
2020-11-20 19:00:00 9.2 3 Sur 6 Sudoeste 0 932.7 -- 84
2020-11-20 18:00:00 10.7 3 Sudeste 9 Nordeste 0 932.6 -- 75
2020-11-20 17:00:00 11.8 5 Nordeste 10 Nordeste 0 932.3 -- 73
2020-11-20 16:00:00 13 5 Este 10 Este 0 932.2 -- 67
2020-11-20 15:00:00 13.2 5 Sudeste 11 Sudeste 0 933 -- 70
2020-11-20 14:00:00 12.1 4 Este 13 Este 0 933.8 -- 73
2020-11-20 13:00:00 10.9 6 Sudeste 12 Sudeste 0 934.8 -- 80
2020-11-20 12:00:00 8.2 6 Sudeste 12 Este 0 935.3 -- 95
2020-11-20 11:00:00 7.4 8 Este 12 Sudeste 0 935.5 -- 96
2020-11-20 10:00:00 7.1 5 Este 10 Nordeste 0 935.5 -- 96
2020-11-20 09:00:00 6.2 5 Noroeste 8 Noroeste 0 935.6 -- 94
2020-11-20 08:00:00 6.7 6 Norte 11 Noroeste 0 935.5 -- 95
2020-11-20 07:00:00 6.7 4 Norte 11 Noroeste 0 935.4 -- 95
2020-11-20 06:00:00 7.5 5 Norte 14 Este 0 935.2 -- 96
2020-11-20 05:00:00 7.2 0 Calma 11 Noroeste 0 935.6 -- 96
2020-11-20 04:00:00 6.5 5 Noroeste 12 Noroeste 0 936 -- 96
2020-11-20 03:00:00 6.5 6 Noroeste 10 Noroeste 0 936.1 -- 95
2020-11-20 02:00:00 6.9 8 Noroeste 13 Noroeste 0 936.8 -0.5 95
2020-11-20 01:00:00 7.8 5 Noroeste 10 Noroeste 0 937.1 -- 95
2020-11-20 00:00:00 8.4 5 Noroeste 10 Noroeste 0 937.1 -- 96
2020-11-19 23:00:00 8.3 6 Noroeste 13 Oeste 0 937.3 -- 95
2020-11-19 22:00:00 8.5 3 Oeste 12 Noroeste 0 936.9 -- 91
2020-11-19 21:00:00 9.7 5 Noroeste 15 Noroeste 0 936.6 -- 94
2020-11-19 20:00:00 10.5 10 Noroeste 25 Oeste 0 936.8 -- 92
2020-11-19 19:00:00 11.4 12 Oeste 24 Oeste 0 936.8 -- 90
2020-11-19 18:00:00 12.5 11 Oeste 27 Oeste 0 936.5 -- 86
2020-11-19 17:00:00 14.6 10 Noroeste 19 Noroeste 0 936 -- 76
2020-11-19 16:00:00 16.5 4 Sudeste 11 Sudeste 0 935.7 -- 67
2020-11-19 15:00:00 17 5 Sudeste 10 Sudeste 0 936.2 -- 64
2020-11-19 14:00:00 16.3 4 Este 12 Sur 0 936.5 -- 64
2020-11-19 13:00:00 16 4 Este 13 Este 0 937.3 -- 65
2020-11-19 12:00:00 14.8 4 Noroeste 10 Norte 0 937.5 -- 69
2020-11-19 11:00:00 12.3 5 Oeste 10 Norte 0 937.1 -- 80
2020-11-19 10:00:00 9.1 5 Noroeste 12 Noroeste 0 937.5 -- 90
2020-11-19 09:00:00 7.8 7 Noroeste 15 Noroeste 0 936.8 -- 94
2020-11-19 08:00:00 6.3 8 Noroeste 12 Noroeste 0 936.2 -- 92
2020-11-19 07:00:00 6.9 7 Noroeste 14 Noroeste 0 935.1 -- 92
2020-11-19 06:00:00 7.3 9 Noroeste 15 Noroeste 0 935 -- 92
2020-11-19 05:00:00 7.9 8 Noroeste 13 Noroeste 0 934.6 -- 90
2020-11-19 04:00:00 8.1 6 Noroeste 14 Noroeste 0 934.1 -- 89
2020-11-19 03:00:00 9 7 Oeste 18 Oeste 0 933.7 0.1 87
2020-11-19 02:00:00 8.9 8 Noroeste 14 Noroeste 0 933.7 -- 89
2020-11-19 01:00:00 9.4 8 Noroeste 13 Noroeste 0 933.6 -- 90
2020-11-19 00:00:00 10.8 6 Noroeste 10 Oeste 0 933.6 -- 88
2020-11-18 23:00:00 12.5 4 Oeste 12 Oeste 0 933.6 -- 87
2020-11-18 22:00:00 12.8 7 Oeste 19 Oeste 0 933.2 -- 86
2020-11-18 21:00:00 12 6 Noroeste 14 Noroeste 0 932.3 -- 79
2020-11-18 20:00:00 12.9 6 Oeste 11 Noroeste 0 931.4 -- 76
2020-11-18 19:00:00 13.3 5 Noroeste 11 Sudoeste 0 930.6 -- 74
2020-11-18 18:00:00 14.5 6 Noroeste 11 Norte 0 929.9 -- 68
2020-11-18 17:00:00 16.7 2 Nordeste 12 Nordeste 0 929.3 -- 60
2020-11-18 16:00:00 17.4 6 Este 12 Este 0 929 -- 61
2020-11-18 15:00:00 17.6 8 Este 17 Este 0 928.8 -- 61
2020-11-18 14:00:00 17.5 10 Este 21 Nordeste 0 928.8 -- 63
2020-11-18 13:00:00 17 9 Este 19 Nordeste 0 929.3 -- 66
2020-11-18 12:00:00 15.3 9 Este 17 Este 0 929.7 -- 73
2020-11-18 11:00:00 13.4 9 Este 15 Nordeste 0 929.6 -- 81
2020-11-18 10:00:00 11.7 4 Este 10 Este 0 929.3 -- 88
2020-11-18 09:00:00 9 3 Nordeste 8 Nordeste 0 928.8 -- 94
2020-11-18 08:00:00 9 3 Sur 9 Sudoeste 0 928.1 -- 94
2020-11-18 07:00:00 9.7 3 Este 16 Nordeste 0 927.8 -- 92
2020-11-18 06:00:00 10.5 7 Este 16 Este 0 927.7 -- 91
2020-11-18 05:00:00 10.4 8 Nordeste 13 Este 0 927.7 -- 91
2020-11-18 04:00:00 10.2 4 Nordeste 19 Este 0 927.8 -- 89
2020-11-18 03:00:00 10.7 6 Sudeste 24 Nordeste 0 927.5 -- 84
2020-11-18 02:00:00 10.7 6 Sudeste 20 Nordeste 0 927.5 -- 84
2020-11-18 01:00:00 11.5 5 Nordeste 16 Noroeste 0 927.6 0 80
2020-11-18 00:00:00 11.4 9 Noroeste 15 Norte 0 927.5 -- 79
2020-11-17 23:00:00 12.5 9 Este 28 Este 0 927.6 -- 74
2020-11-17 22:00:00 11 9 Sur 23 Sudoeste 0 927.6 -- 77
2020-11-17 21:00:00 12.3 7 Sudeste 22 Este 0 927.6 -- 71
2020-11-17 20:00:00 11.5 3 Sudoeste 17 Este 0 927.4 -- 69
2020-11-17 19:00:00 13 5 Sudeste 22 Sudoeste 0 927.2 -- 62
2020-11-17 18:00:00 13.8 8 Nordeste 15 Nordeste 0 927 -- 62
2020-11-17 17:00:00 15.8 6 Este 22 Este 0 927 -- 55
2020-11-17 16:00:00 16.8 14 Este 31 Este 0 926.8 -- 50
2020-11-17 15:00:00 16.1 8 Este 16 Nordeste 0 927.2 -- 54
2020-11-17 14:00:00 14.9 5 Nordeste 15 Nordeste 0 927.5 -- 59
2020-11-17 13:00:00 13.3 9 Nordeste 17 Este 0 928.1 -- 65
2020-11-17 12:00:00 11.6 9 Este 17 Nordeste 0 928.9 -- 70
2020-11-17 11:00:00 10 8 Este 13 Nordeste 0 929.3 -- 76
2020-11-17 10:00:00 7.8 3 Nordeste 10 Norte 0 929.3 -- 87
2020-11-17 09:00:00 4.4 4 Noroeste 12 Noroeste 0 929 -- 94
2020-11-17 08:00:00 3.2 5 Oeste 14 Noroeste 0 928.7 -- 94
2020-11-17 07:00:00 3.2 7 Noroeste 11 Noroeste 0 928.8 -- 93
2020-11-17 06:00:00 3.9 8 Noroeste 12 Noroeste 0 928.8 -- 94
2020-11-17 05:00:00 3.5 7 Noroeste 12 Noroeste 0 928.9 -- 93
2020-11-17 04:00:00 3.5 7 Noroeste 11 Noroeste 0 928.9 -- 92
2020-11-17 03:00:00 3.4 5 Noroeste 11 Noroeste 0 929.1 -- 93
2020-11-17 02:00:00 3.8 6 Noroeste 9 Noroeste 0 929.3 -- 92
2020-11-17 01:00:00 4.2 7 Noroeste 11 Noroeste 0 929.5 -- 91
2020-11-17 00:00:00 4.9 8 Noroeste 14 Noroeste 0 929.6 -- 91
2020-11-16 23:00:00 5.4 8 Noroeste 12 Noroeste 0 929.7 -- 93
2020-11-16 22:00:00 6.2 8 Noroeste 11 Noroeste 0 929.5 -- 93
2020-11-16 21:00:00 6.8 9 Noroeste 12 Noroeste 0 929 -- 92
2020-11-16 20:00:00 8.2 5 Noroeste 7 Noroeste 0 928.8 -- 91
2020-11-16 19:00:00 9.5 3 Oeste 5 Sudoeste 0 928.6 -- 87
2020-11-16 18:00:00 10.5 2 Oeste 9 Este 0 928.3 -- 83
2020-11-16 17:00:00 11.7 5 Este 10 Nordeste 0 928.2 -- 78
2020-11-16 16:00:00 13 5 Sudeste 10 Sudeste 0 927.9 -- 77
2020-11-16 15:00:00 12.6 5 Este 13 Este 0 927.9 -- 81
2020-11-16 14:00:00 12.4 7 Este 13 Sudeste 0 928.1 -- 77
2020-11-16 13:00:00 12.1 5 Este 12 Sudeste 0 928.4 -- 81
2020-11-16 12:00:00 11.3 5 Este 12 Sudeste 0 928.7 -- 80
2020-11-16 11:00:00 9.5 6 Sudeste 11 Noroeste 0 928.6 -- 86
2020-11-16 10:00:00 7.4 5 Noroeste 13 Noroeste 0 928.4 -- 93
2020-11-16 09:00:00 4.7 7 Noroeste 13 Oeste 0 927.4 -- 95
2020-11-16 08:00:00 5 6 Noroeste 11 Oeste 0 926.9 -- 95
2020-11-16 07:00:00 5.9 5 Oeste 11 Oeste 0 927 -- 94
2020-11-16 06:00:00 7.1 6 Oeste 14 Noroeste 0 927 -- 93
2020-11-16 05:00:00 7.6 5 Oeste 8 Oeste 0 926.6 -- 93
2020-11-16 04:00:00 8.3 4 Oeste 12 Noroeste 0 926.8 -- 94
2020-11-16 03:00:00 8.8 5 Noroeste 15 Oeste 0 926.7 -- 94
2020-11-16 02:00:00 9.3 3 Oeste 17 Oeste 0 926.2 -- 94
2020-11-16 01:00:00 9.6 6 Oeste 18 Oeste 0 926.1 -- 95
2020-11-16 00:00:00 10 6 Oeste 15 Noroeste 0.2 925.8 -- 95
2020-11-15 23:00:00 10.4 6 Oeste 17 Noroeste 0.4 925.8 -- 95
2020-11-15 22:00:00 10.6 5 Oeste 14 Noroeste 0.4 925.3 -- 95
2020-11-15 21:00:00 10.6 5 Oeste 17 Oeste 0.4 924.7 -- 95
2020-11-15 20:00:00 10.8 9 Oeste 22 Oeste 0.4 924 -- 95
2020-11-15 19:00:00 11 6 Oeste 21 Oeste 0.4 923.2 -- 95
2020-11-15 18:00:00 11.6 12 Oeste 29 Oeste 0.4 922.8 -- 94
2020-11-15 17:00:00 12.5 12 Oeste 29 Oeste 0.4 922.2 -- 94
2020-11-15 16:00:00 13.4 15 Oeste 35 Oeste 0 921.7 -- 92
2020-11-15 15:00:00 13.8 12 Oeste 35 Oeste 1.2 921.2 -- 92
2020-11-15 14:00:00 14.1 19 Oeste 43 Oeste 1.6 920.9 -- 91
2020-11-15 13:00:00 14.2 15 Oeste 35 Oeste 2.2 921.1 -- 91
2020-11-15 12:00:00 14 13 Oeste 36 Sudoeste 1.4 921 -- 90
2020-11-15 11:00:00 15 16 Oeste 36 Sudoeste 0 920.6 -- 79
2020-11-15 10:00:00 14.4 22 Oeste 45 Oeste 0 920.7 -- 82
2020-11-15 09:00:00 14.2 23 Oeste 52 Sudoeste 0 920 -- 78
2020-11-15 08:00:00 13.7 15 Sudoeste 36 Sudoeste 0 919.5 -- 82
2020-11-15 07:00:00 13.5 12 Oeste 33 Oeste 0.2 919.6 -- 85
2020-11-15 06:00:00 13.3 10 Sudoeste 24 Sudoeste 0 919.4 -- 84
2020-11-15 05:00:00 13.3 9 Sudoeste 29 Sudoeste 0 919.4 -- 86
2020-11-15 04:00:00 13 9 Sudoeste 22 Sudoeste 0 920 -- 89
2020-11-15 03:00:00 12 6 Norte 24 Oeste 0 920.2 -- 92
2020-11-15 02:00:00 12.9 10 Sudoeste 27 Oeste 0 920.6 -- 85
2020-11-15 01:00:00 11.6 6 Norte 15 Nordeste 0 920.6 -- 91
2020-11-15 00:00:00 11.8 6 Nordeste 14 Este 0 921.1 -- 92
2020-11-14 23:00:00 12 9 Sudeste 23 Este 0 921.2 -- 91
2020-11-14 22:00:00 11.8 5 Este 12 Nordeste 0 921 -- 90
2020-11-14 21:00:00 11.4 2 Norte 16 Nordeste 0 921.1 -- 89
2020-11-14 20:00:00 11.1 6 Nordeste 12 Nordeste 0 921.1 -- 92
2020-11-14 19:00:00 11.3 7 Este 21 Este 0 921 -- 90
2020-11-14 18:00:00 11.7 7 Norte 13 Nordeste 0 920.9 -- 88
2020-11-14 17:00:00 12.1 6 Este 19 Este 0 920.6 -- 86
2020-11-14 16:00:00 13.5 9 Este 23 Este 0 920.2 -- 79
2020-11-14 15:00:00 13.6 10 Este 29 Este 0 920.3 -- 77
2020-11-14 14:00:00 15.2 13 Sur 29 Oeste 0 920.7 -- 69
2020-11-14 13:00:00 14.4 8 Norte 20 Norte 0 921 -- 69
2020-11-14 12:00:00 12.9 12 Nordeste 24 Nordeste 0 921.1 -- 77
2020-11-14 11:00:00 11.7 5 Nordeste 26 Este 0 921.3 -- 81
2020-11-14 10:00:00 9.6 4 Norte 12 Noroeste 0 921.4 -- 93
2020-11-14 09:00:00 7.3 5 Noroeste 14 Norte 0 921 -- 94
2020-11-14 08:00:00 6.8 3 Noroeste 13 Norte 0 920.6 -- 91
2020-11-14 07:00:00 7.4 10 Noroeste 17 Noroeste 0 920.8 -- 92
2020-11-14 06:00:00 7.7 11 Noroeste 17 Noroeste 0 920.4 -- 90
2020-11-14 05:00:00 8.6 5 Norte 15 Este 0 920.5 -- 86
2020-11-14 04:00:00 9.7 7 Este 26 Sudeste 0 920.8 -- 82
2020-11-14 03:00:00 9.5 9 Este 23 Este 0 921 -- 83
2020-11-14 02:00:00 9.3 9 Nordeste 21 Nordeste 0 921.3 -- 86
2020-11-14 01:00:00 7.8 5 Sudeste 12 Nordeste 0 921.9 -- 87
2020-11-14 00:00:00 7.5 7 Norte 14 Noroeste 0 922.2 -- 90
2020-11-13 23:00:00 7.4 11 Noroeste 15 Noroeste 0 922.3 -- 88
2020-11-13 22:00:00 7.8 6 Norte 11 Nordeste 0 922.1 -- 86
2020-11-13 21:00:00 8.4 7 Nordeste 18 Este 0 921.9 -- 83
2020-11-13 20:00:00 8.7 6 Noroeste 11 Noroeste 0 922.1 -- 78
2020-11-13 19:00:00 9.5 4 Oeste 12 Noroeste 0 922 -- 74
2020-11-13 18:00:00 11.7 5 Norte 15 Este 0 921.8 -- 66
2020-11-13 17:00:00 14 5 Oeste 18 Oeste 0 921.6 -- 58
2020-11-13 16:00:00 15.5 6 Oeste 18 Noroeste 0 921.6 -- 53
2020-11-13 15:00:00 15.9 3 Noroeste 13 Nordeste 0 922.1 -- 54
2020-11-13 14:00:00 15.4 6 Nordeste 14 Nordeste 0 922.4 -- 62
2020-11-13 13:00:00 14.3 5 Este 15 Este 0 923 -- 67
2020-11-13 12:00:00 12.6 7 Nordeste 15 Nordeste 0 923.3 -- 74
2020-11-13 11:00:00 10.5 8 Este 15 Nordeste 0 923.3 -- 81
2020-11-13 10:00:00 9 5 Sudeste 11 Nordeste 0 923.5 -- 87
2020-11-13 09:00:00 6.2 7 Noroeste 10 Noroeste 0 923 -- 92
2020-11-13 08:00:00 6.3 6 Norte 10 Noroeste 0 922.8 -- 93
2020-11-13 07:00:00 7 4 Noroeste 10 Sudoeste 0 923 -- 90
2020-11-13 06:00:00 7.3 4 Noroeste 13 Sudoeste 0 923 -- 90
2020-11-13 05:00:00 7.1 4 Sudoeste 11 Sudoeste 0 922.9 -- 89
2020-11-13 04:00:00 7.5 3 Noroeste 10 Sudoeste 0 923 -- 88
2020-11-13 03:00:00 8.3 5 Norte 9 Norte 0 922.9 -- 87
2020-11-13 02:00:00 8.2 5 Noroeste 10 Noroeste 0 922.9 -- 87
2020-11-13 01:00:00 8.6 6 Norte 8 Noroeste 0 923.1 -- 87
2020-11-13 00:00:00 8.5 3 Noroeste 9 Noroeste 0 923.3 -- 84
2020-11-12 23:00:00 8.5 5 Noroeste 9 Noroeste 0 923.4 -- 78
2020-11-12 22:00:00 9.2 3 Norte 10 Noroeste 0 923.2 -- 77
2020-11-12 21:00:00 9.3 6 Noroeste 12 Noroeste 0 923.3 -- 74
2020-11-12 20:00:00 10.7 4 Oeste 6 Norte 0 923.3 -- 73
2020-11-12 19:00:00 11.2 3 Norte 9 Noroeste 0 923.2 -- 72
2020-11-12 18:00:00 12.4 6 Noroeste 13 Noroeste 0 922.8 -- 67
2020-11-12 17:00:00 13.9 3 Noroeste 15 Este 0 922.7 -- 64
2020-11-12 16:00:00 15.7 9 Este 16 Este 0 922.8 -- 56
2020-11-12 15:00:00 15.6 8 Nordeste 15 Este 0 923.1 -- 62
2020-11-12 14:00:00 15.2 8 Este 14 Nordeste 0 923.7 -- 65
2020-11-12 13:00:00 14.5 8 Este 13 Este 0 924.5 -- 69
2020-11-12 12:00:00 13.4 5 Este 12 Nordeste 0 925.5 -- 72
2020-11-12 11:00:00 11.7 5 Este 12 Este 0 925.8 -- 79
2020-11-12 10:00:00 9.8 4 Este 8 Sudeste 0 925.8 -- 85
2020-11-12 09:00:00 7.1 4 Noroeste 10 Noroeste 0 925.6 -- 94
2020-11-12 08:00:00 6.7 6 Noroeste 10 Noroeste 0 925.3 -- 92
2020-11-12 07:00:00 7.5 2 Sudeste 8 Nordeste 0 925.2 -- 92
2020-11-12 06:00:00 7.9 3 Nordeste 8 Nordeste 0 925.2 -- 89
2020-11-12 05:00:00 8.7 0 Calma 4 Nordeste 0 925.1 -- 89
2020-11-12 04:00:00 8.9 0 Calma 5 Sudoeste 0 925.4 -- 89
2020-11-12 03:00:00 9.1 3 Norte 5 Norte 0 925.7 -- 88
2020-11-12 02:00:00 9.2 2 Oeste 6 Este 0 925.9 -- 88
2020-11-12 01:00:00 9.3 5 Noroeste 9 Norte 0 926.1 -- 86
2020-11-12 00:00:00 9.5 3 Sudoeste 9 Norte 0 926.1 -- 86
2020-11-11 23:00:00 9.4 5 Norte 8 Norte 0 926.2 -- 86
2020-11-11 22:00:00 9.2 4 Noroeste 9 Norte 0 926 -- 87
2020-11-11 21:00:00 9.1 4 Noroeste 11 Sur 0 925.7 -- 86
2020-11-11 20:00:00 9.5 6 Norte 13 Norte 0 925.5 -- 84
2020-11-11 19:00:00 9.4 4 Noroeste 14 Nordeste 0 925 -- 83
2020-11-11 18:00:00 10 7 Nordeste 20 Norte 0 924.9 -- 81
2020-11-11 17:00:00 10.2 5 Norte 15 Nordeste 0 924.9 -- 80
2020-11-11 16:00:00 10.3 6 Este 24 Este 0 924.6 -- 80
2020-11-11 15:00:00 10.2 8 Este 20 Este 0 924.8 -- 80
2020-11-11 14:00:00 11 9 Este 22 Nordeste 0 925.5 -- 77
2020-11-11 13:00:00 10.7 10 Este 27 Este 0 925.9 -- 78
2020-11-11 12:00:00 10.2 15 Este 25 Este 0 926.4 -- 78
2020-11-11 11:00:00 9.3 13 Este 24 Este 0 926.6 -- 84
2020-11-11 10:00:00 7.9 13 Este 28 Sudeste 0 926.1 -- 91
2020-11-11 09:00:00 5.9 11 Este 19 Este 0 926 -- 95
2020-11-11 08:00:00 5.5 3 Este 8 Este 0 926.3 -- 95
2020-11-11 07:00:00 5.8 3 Este 10 Este 0 926.6 -- 96
2020-11-11 06:00:00 5.3 4 Nordeste 8 Sudeste 0 926.8 -- 95
2020-11-11 05:00:00 5 3 Sur 10 Este 0 927.1 -- 95
2020-11-11 04:00:00 5.6 4 Noroeste 12 Nordeste 0 927.8 -- 94
2020-11-11 03:00:00 6.2 2 Norte 14 Nordeste 0 927.8 -- 95
2020-11-11 02:00:00 6 7 Este 13 Este 0 928.2 -- 96
2020-11-11 01:00:00 5.5 5 Este 9 Este 0 928.8 -- 95
2020-11-11 00:00:00 5.5 2 Sudeste 6 Este 0 929.1 -- 95
2020-11-10 23:00:00 5.2 4 Nordeste 9 Noroeste 0 929.3 -- 95
2020-11-10 22:00:00 5.4 6 Norte 10 Noroeste 0 929.3 -- 92
2020-11-10 21:00:00 6.6 4 Norte 11 Noroeste 0 929.2 -- 91
2020-11-10 20:00:00 7.1 6 Noroeste 10 Noroeste 0 928.9 -- 90
2020-11-10 19:00:00 8.3 2 Noroeste 10 Norte 0 928.9 -- 84
2020-11-10 18:00:00 10 2 Nordeste 10 Este 0 928.7 -- 77
2020-11-10 17:00:00 11.5 6 Sudeste 9 Sudeste 0 929.2 -- 73
2020-11-10 16:00:00 12.1 6 Este 13 Sudeste 0 929.1 -- 73
2020-11-10 15:00:00 12.6 5 Sudeste 13 Sudeste 0 929.4 -- 69
2020-11-10 14:00:00 12.2 4 Este 19 Sudeste 0 929.6 -- 71
2020-11-10 13:00:00 11.3 6 Sudeste 17 Este 0 930.1 -- 74
2020-11-10 12:00:00 9.6 8 Sudeste 17 Sudeste 0 930.7 -- 78
2020-11-10 11:00:00 7.4 5 Este 13 Este 0 930.8 -- 88
2020-11-10 10:00:00 5.5 4 Noroeste 10 Noroeste 0 930.6 -- 91
2020-11-10 09:00:00 4.6 8 Noroeste 12 Noroeste 0 930.4 -- 92
2020-11-10 08:00:00 4.4 9 Noroeste 12 Norte 0 929.7 -- 92
2020-11-10 07:00:00 5.1 5 Noroeste 8 Noroeste 0 929.2 -- 92
2020-11-10 06:00:00 5.1 6 Noroeste 12 Noroeste 0 929.3 -- 92
2020-11-10 05:00:00 5.2 6 Noroeste 12 Noroeste 0 929 -- 91
2020-11-10 04:00:00 5.2 6 Noroeste 14 Noroeste 0 929.3 -- 90
2020-11-10 03:00:00 5.4 9 Noroeste 14 Noroeste 0 929.1 -- 91
2020-11-10 02:00:00 5.5 7 Noroeste 14 Noroeste 0 928.9 -- 94
2020-11-10 01:00:00 4.8 8 Noroeste 14 Noroeste 0 929 -- 93
2020-11-10 00:00:00 5.5 6 Noroeste 14 Oeste 0 929 -- 92
2020-11-09 23:00:00 7 4 Oeste 15 Oeste 0 928.9 -- 91
2020-11-09 22:00:00 8 8 Oeste 14 Oeste 0 928.8 -- 91
2020-11-09 21:00:00 7.9 7 Oeste 12 Oeste 0 928.2 -- 91
2020-11-09 20:00:00 8.5 6 Oeste 12 Noroeste 0 928 -- 88
2020-11-09 19:00:00 9.3 4 Noroeste 8 Noroeste 0 927.5 -- 89
2020-11-09 18:00:00 10.3 4 Oeste 18 Oeste 0 926.8 -- 82
2020-11-09 17:00:00 11.4 7 Oeste 20 Oeste 0 926.4 -- 82
2020-11-09 16:00:00 12.3 10 Oeste 23 Noroeste 0 925.7 -- 80
2020-11-09 15:00:00 15 13 Sudoeste 26 Sudoeste 0 925.3 -- 59
2020-11-09 14:00:00 13.2 12 Oeste 23 Sudoeste 0 925.3 -- 67
2020-11-09 13:00:00 14.3 11 Oeste 26 Oeste 0 925.4 -- 68
2020-11-09 12:00:00 11.2 9 Oeste 28 Sudoeste 0.2 925.6 -- 88
2020-11-09 11:00:00 11 3 Nordeste 13 Noroeste 0 925.1 -- 90
2020-11-09 10:00:00 10.6 6 Norte 12 Norte 0.2 924.5 -- 92
2020-11-09 09:00:00 8.9 4 Noroeste 10 Sudoeste 0.4 923.8 -- 94
2020-11-09 08:00:00 7.7 3 Norte 10 Norte 0 923.2 -- 94
2020-11-09 07:00:00 7.7 4 Oeste 9 Sur 0 922.6 -- 93
2020-11-09 06:00:00 8.1 8 Noroeste 12 Norte 0 922.3 -- 92
2020-11-09 05:00:00 8.4 2 Nordeste 10 Norte 0 922.1 -- 89
2020-11-09 04:00:00 8.2 4 Oeste 10 Oeste 0 922 -- 91
2020-11-09 03:00:00 8.5 4 Noroeste 10 Sudoeste 0 921.7 -- 86
2020-11-09 02:00:00 8.3 4 Oeste 10 Sudoeste 0 921.8 -- 89
2020-11-09 01:00:00 9.2 4 Sudoeste 14 Sur 0 922 -- 84
2020-11-09 00:00:00 10.5 6 Sudoeste 13 Sudoeste 0 922 0.8 77
2020-11-08 23:00:00 10.3 6 Norte 14 Este 0 921.7 -- 83
2020-11-08 22:00:00 10.5 4 Norte 12 Sudeste 0 921.5 -- 80
2020-11-08 21:00:00 10.9 5 Sudeste 19 Oeste 0 921.2 -- 74
2020-11-08 20:00:00 11.2 4 Nordeste 14 Oeste 0 920.9 -- 80
2020-11-08 19:00:00 11.2 4 Nordeste 13 Este 0 920.6 -- 84
2020-11-08 18:00:00 11.8 8 Este 20 Sudeste 0 919.8 -- 82
2020-11-08 17:00:00 13.2 8 Sudoeste 26 Sudoeste 0 919.7 -- 62
2020-11-08 16:00:00 14.7 9 Sudoeste 30 Sur 0 919.7 -- 58
2020-11-08 15:00:00 15.5 10 Sudoeste 34 Oeste 0 919.9 -- 59
2020-11-08 14:00:00 15.9 9 Oeste 31 Oeste 0 919.9 -- 58
2020-11-08 13:00:00 13.2 7 Nordeste 29 Sudeste 0 920.2 -- 77
2020-11-08 12:00:00 12.2 14 Nordeste 25 Este 0 920.3 -- 89
2020-11-08 11:00:00 12.9 10 Nordeste 21 Nordeste 0 920.4 -- 84
2020-11-08 10:00:00 11.1 6 Noroeste 21 Norte 0 920.5 -- 92
2020-11-08 09:00:00 10.7 6 Este 36 Sudeste 0.2 920.1 -- 93
2020-11-08 08:00:00 10.4 12 Sudeste 30 Sudeste 0.4 919.8 -- 94
2020-11-08 07:00:00 11.1 12 Sudeste 33 Sur 0 920 -- 85
2020-11-08 06:00:00 10.6 14 Sudeste 35 Sur 0 920.5 -- 84
2020-11-08 05:00:00 10.2 4 Este 14 Este 0 920.6 -- 91
2020-11-08 04:00:00 10.3 3 Sudoeste 15 Sudeste 0.2 921.1 -- 94
2020-11-08 03:00:00 10.2 9 Este 24 Sudeste 0 921.3 -- 94
2020-11-08 02:00:00 10.4 8 Sudeste 23 Nordeste 0 921.4 -- 91
2020-11-08 01:00:00 10.4 9 Este 17 Nordeste 0 921.7 -- 92
2020-11-08 00:00:00 10.3 6 Nordeste 17 Sudeste 0 921.5 -- 89
2020-11-07 23:00:00 10.3 7 Este 20 Este 0 921.9 -- 91
2020-11-07 22:00:00 10.1 9 Sudeste 18 Sudeste 0 921.9 -- 93
2020-11-07 21:00:00 9.5 4 Este 13 Este 0 921.8 -- 93
2020-11-07 20:00:00 9.6 5 Norte 12 Norte 0 921.6 -- 89
2020-11-07 19:00:00 10.7 3 Norte 15 Nordeste 0 921.2 -- 88
2020-11-07 18:00:00 11.6 6 Este 13 Este 0 920.6 -- 83
2020-11-07 17:00:00 13.2 5 Nordeste 22 Sur 0 920.3 -- 75
2020-11-07 16:00:00 14.5 12 Sudoeste 32 Oeste 0 919.8 -- 63
2020-11-07 15:00:00 15.6 10 Sudeste 35 Sudeste 0 919.4 -- 63
2020-11-07 14:00:00 16.3 16 Sudoeste 33 Sudoeste 0 919.3 -- 55
2020-11-07 13:00:00 14.1 11 Oeste 29 Nordeste 0 918.7 -- 63
2020-11-07 12:00:00 13.4 16 Este 32 Este 0 918.5 -- 66
2020-11-07 11:00:00 12.4 8 Este 21 Sudeste 0.2 918.1 -- 77
2020-11-07 10:00:00 11.1 6 Sudeste 15 Este 0 917.4 -- 86
2020-11-07 09:00:00 8.8 4 Norte 13 Noroeste 0 917 -- 95
2020-11-07 08:00:00 8.3 5 Nordeste 22 Este 0 916.1 -- 93
2020-11-07 07:00:00 8.8 8 Sudeste 25 Sudeste 0 915.6 -- 92
2020-11-07 06:00:00 9.1 10 Sudeste 22 Sudeste 0 915.6 -- 92
2020-11-07 05:00:00 9.1 9 Sudeste 24 Sudeste 0 914.9 -- 91
2020-11-07 04:00:00 9.4 13 Sudeste 24 Sudeste 0 914.8 -- 90
2020-11-07 03:00:00 9.5 10 Sudeste 18 Sur 0 914.8 -- 91
2020-11-07 02:00:00 9.7 11 Sudeste 22 Sudeste 0 914.8 -- 92
2020-11-07 01:00:00 9.8 10 Sudeste 24 Sudeste 0 914.7 -- 94
2020-11-07 00:00:00 9.9 12 Sudeste 23 Sudeste 0 914.5 -- 94
2020-11-06 23:00:00 10.2 11 Este 19 Este 0 914.6 -- 91
2020-11-06 22:00:00 10.3 5 Noroeste 31 Sudeste 0.6 914 -- 91
2020-11-06 21:00:00 11.3 15 Sudeste 76 Sudeste 4.4 913 -- 85
2020-11-06 20:00:00 11.9 4 Oeste 22 Nordeste 0.2 913 -- 88
2020-11-06 19:00:00 10.5 9 Sur 60 Sudoeste 7.2 913 -- 87
2020-11-06 18:00:00 14 9 Sudeste 33 Sudeste 0.2 913.4 -- 76
2020-11-06 17:00:00 14.6 15 Sudeste 40 Este 0 913.9 -- 68
2020-11-06 16:00:00 14.6 13 Este 50 Sudeste 0 914 -- 68
2020-11-06 15:00:00 15.3 21 Sudeste 47 Este 0 913.9 -- 62
2020-11-06 14:00:00 13.1 12 Este 26 Este 0 914.5 -- 75
2020-11-06 13:00:00 13 14 Este 33 Este 0 915.5 -- 77
2020-11-06 12:00:00 12.4 19 Este 34 Nordeste 0 917 -0.6 75
2020-11-06 11:00:00 11.8 13 Este 24 Este 0.2 917 -- 83
2020-11-06 10:00:00 10.7 12 Este 23 Este 0 917.6 -- 83
2020-11-06 09:00:00 9.7 4 Este 17 Noroeste 0 917.6 -- 87
2020-11-06 08:00:00 10 5 Este 25 Sudeste 0 917.5 -- 86
2020-11-06 07:00:00 10.2 8 Este 27 Este 0 917.4 -- 79
2020-11-06 06:00:00 9.7 11 Este 40 Este 0 917.4 -- 85
2020-11-06 05:00:00 9.8 18 Este 39 Este 0.2 917 -- 91
2020-11-06 04:00:00 10.2 13 Este 32 Sudeste 0.4 918.1 -- 85
2020-11-06 03:00:00 10.2 13 Este 28 Sudeste 0 917.7 -- 81
2020-11-06 02:00:00 9.9 14 Este 28 Este 0 918.1 -- 82
2020-11-06 01:00:00 10.2 9 Este 26 Este 0 918.6 -- 81
2020-11-06 00:00:00 9.9 8 Este 20 Este 0 918.8 -- 88
2020-11-05 23:00:00 10.4 11 Sudeste 26 Sudeste 0.2 919.1 -- 87
2020-11-05 22:00:00 11.9 13 Este 32 Sudeste 0 919.5 -- 73
2020-11-05 21:00:00 12.2 15 Sudeste 40 Sudeste 0 919.1 -- 70
2020-11-05 20:00:00 11.2 10 Este 21 Norte 0 919.6 -- 76
2020-11-05 19:00:00 11.4 11 Nordeste 21 Este 0 919.9 -- 75
2020-11-05 18:00:00 11.4 8 Este 26 Sudeste 0 919.9 -- 75
2020-11-05 17:00:00 11.3 9 Este 24 Nordeste 0 920.1 -- 76
2020-11-05 16:00:00 11 12 Nordeste 27 Nordeste 0 920 -- 76
2020-11-05 15:00:00 11 11 Este 22 Este 0 920 -1.9 76
2020-11-05 14:00:00 10.1 14 Nordeste 24 Nordeste 0 920.7 -- 77
2020-11-05 13:00:00 9.5 9 Nordeste 27 Nordeste 0 921.5 -- 78
2020-11-05 12:00:00 9.9 12 Este 26 Este 0 921.9 -0.1 76
2020-11-05 11:00:00 9.3 6 Este 16 Nordeste 0 922.2 -- 77
2020-11-05 10:00:00 8.5 8 Este 26 Sudeste 0 922.2 -- 78
2020-11-05 09:00:00 7.9 12 Este 35 Nordeste 0 922 -- 78
2020-11-05 08:00:00 7.7 14 Este 34 Sudeste 0 921.5 -- 78
2020-11-05 07:00:00 7.1 13 Este 34 Este 0 921.9 -- 77
2020-11-05 06:00:00 7.5 18 Este 42 Este 0 922.3 -- 73
2020-11-05 05:00:00 7.2 16 Este 39 Este 0 922.3 -- 72
2020-11-05 04:00:00 7.1 16 Este 41 Este 0 922.8 -- 70
2020-11-05 03:00:00 6.7 15 Este 38 Este 0 923 -- 71
2020-11-05 02:00:00 6 18 Este 42 Este 0 923.2 -- 71
2020-11-05 01:00:00 5.8 20 Este 53 Este 0 922.8 -- 71
2020-11-05 00:00:00 5.8 24 Este 51 Este 0 922.8 -- 69
2020-11-04 23:00:00 6.3 22 Este 44 Este 0 922.7 -- 64
2020-11-04 22:00:00 6.5 19 Este 44 Este 0 922.5 -- 61
2020-11-04 21:00:00 6.7 19 Este 39 Este 0 922.1 -- 60
2020-11-04 20:00:00 7.2 16 Este 40 Este 0 922 -- 61
2020-11-04 19:00:00 7.8 22 Este 45 Este 0 921.5 -- 57
2020-11-04 18:00:00 7.7 13 Este 29 Este 0 921.5 -- 61
2020-11-04 17:00:00 7.7 9 Este 26 Nordeste 0 921.8 -- 64
2020-11-04 16:00:00 7.9 9 Este 18 Este 0 922.3 -- 63
2020-11-04 15:00:00 8.4 9 Este 28 Nordeste 0 922.8 -- 59
2020-11-04 14:00:00 -- -- -- -- -- -- -- -- --
2020-11-04 13:00:00 8.3 12 Este 22 Este 0 924.5 -- 62
2020-11-04 12:00:00 6.5 10 Este 21 Este 0 925.7 -- 73
2020-11-04 11:00:00 4.8 8 Sudeste 15 Sudeste 0 926.3 -0.5 82
2020-11-04 10:00:00 3.4 6 Sudeste 11 Sudeste 0 926.6 -- 90
2020-11-04 09:00:00 0.3 5 Noroeste 9 Noroeste 0 927 -- 94
2020-11-04 08:00:00 -0.4 4 Noroeste 9 Noroeste 0 926.8 -- 93
2020-11-04 07:00:00 0 3 Noroeste 12 Noroeste 0 927 -- 93
2020-11-04 06:00:00 0.6 5 Oeste 10 Noroeste 0 927.6 -- 92
2020-11-04 05:00:00 0.9 7 Noroeste 17 Oeste 0 928.2 -- 92
2020-11-04 04:00:00 1.5 6 Oeste 15 Oeste 0 928.8 -- 91
2020-11-04 03:00:00 2.5 7 Oeste 19 Oeste 0 929.5 -- 90
2020-11-04 02:00:00 3.9 8 Noroeste 17 Oeste 0 930.1 -- 86
2020-11-04 01:00:00 4.4 8 Oeste 17 Oeste 0 931.1 -- 88
2020-11-04 00:00:00 4.4 8 Oeste 17 Oeste 0 931.5 -- 89
2020-11-03 23:00:00 4.8 7 Oeste 18 Oeste 0 932.1 -- 89
2020-11-03 22:00:00 4.9 8 Oeste 15 Oeste 0 932.7 -- 89
2020-11-03 21:00:00 5.3 5 Oeste 18 Oeste 0 932.7 -- 86
2020-11-03 20:00:00 6 8 Oeste 18 Oeste 0 932.9 -- 85
2020-11-03 19:00:00 7 8 Oeste 18 Oeste 0 932.6 -- 77
2020-11-03 18:00:00 7.8 4 Sudoeste 26 Noroeste 0 932.7 -- 72
2020-11-03 17:00:00 8.8 9 Noroeste 27 Noroeste 0 932.9 -- 75
2020-11-03 16:00:00 9.6 12 Noroeste 23 Noroeste 0 932.8 -- 67
2020-11-03 15:00:00 10.1 8 Norte 24 Norte 0 932.8 -- 72
2020-11-03 14:00:00 9.6 9 Noroeste 23 Norte 0 933.4 -- 74
2020-11-03 13:00:00 9.8 9 Noroeste 22 Norte 0 933.6 -- 75
2020-11-03 12:00:00 9.2 10 Norte 24 Noroeste 0 933.8 -- 77
2020-11-03 11:00:00 9.1 9 Norte 24 Noroeste 0 933.6 -- 80
2020-11-03 10:00:00 8 6 Noroeste 12 Noroeste 0 933.3 -- 89
2020-11-03 09:00:00 7.1 4 Sudoeste 10 Sudoeste 0 932.8 -- 94
2020-11-03 08:00:00 6.2 4 Oeste 10 Noroeste 0 932.2 -- 93
2020-11-03 07:00:00 6.2 5 Oeste 8 Oeste 0 931.7 -- 93
2020-11-03 06:00:00 6.1 5 Sudoeste 14 Oeste 0 931.7 -- 93
2020-11-03 05:00:00 5.2 3 Sudoeste 8 Noroeste 0 931.5 -- 95
2020-11-03 04:00:00 4 5 Oeste 12 Oeste 0 931.4 -- 93
2020-11-03 03:00:00 4.1 5 Oeste 9 Sudoeste 0 931.5 -- 93
2020-11-03 02:00:00 4.7 2 Sur 12 Oeste 0 931.1 -- 92
2020-11-03 01:00:00 6.3 6 Oeste 19 Oeste 0 931 -- 91
2020-11-03 00:00:00 7.4 8 Oeste 19 Oeste 0 930.8 -- 92
2020-11-02 23:00:00 8.3 8 Oeste 19 Oeste 0 930.4 -- 93
2020-11-02 22:00:00 8.5 11 Oeste 22 Oeste 0 929.8 -- 93
2020-11-02 21:00:00 8.9 8 Oeste 21 Oeste 0 929.6 -- 94
2020-11-02 20:00:00 9.3 9 Oeste 21 Oeste 0.4 929.1 -- 94
2020-11-02 19:00:00 10.2 8 Oeste 16 Oeste 0 928.5 -- 95
2020-11-02 18:00:00 10.4 9 Oeste 20 Oeste 0.4 927.8 -- 94
2020-11-02 17:00:00 11.1 9 Oeste 24 Noroeste 0 927.4 -- 93
2020-11-02 16:00:00 11.6 12 Oeste 26 Oeste 0.2 926.9 -- 91
2020-11-02 15:00:00 12.8 13 Oeste 27 Noroeste 0.4 926.6 -- 91
2020-11-02 14:00:00 14.3 11 Oeste 29 Oeste 2.4 926.4 -- 87
2020-11-02 13:00:00 19.7 7 Sudoeste 27 Sudoeste 0 926 -- 68
2020-11-02 12:00:00 16.4 9 Sudoeste 26 Oeste 0 926.3 -- 78
2020-11-02 11:00:00 15.4 5 Este 11 Nordeste 0 926.4 -- 88
2020-11-02 10:00:00 14.6 4 Noroeste 11 Oeste 0 926.4 -- 88
2020-11-02 09:00:00 13.5 3 Este 11 Sudoeste 0 926.2 -- 95
2020-11-02 08:00:00 12.3 2 Norte 9 Noroeste 0 925.9 -- 95
2020-11-02 07:00:00 12.6 0 Calma 12 Sudoeste 0 925.8 -- 94
2020-11-02 06:00:00 13.2 0 Calma 9 Noroeste 0.2 925.9 -- 94
2020-11-02 05:00:00 13.3 4 Sudoeste 11 Oeste 0.2 925.6 -- 94
2020-11-02 04:00:00 13.3 4 Noroeste 8 Norte 0 925.7 -0.6 94
2020-11-02 03:00:00 13.6 0 Calma 9 Norte 0 925.8 -- 92
2020-11-02 02:00:00 13.7 2 Sudeste 10 Norte 0 925.9 -- 92
2020-11-02 01:00:00 14.1 6 Norte 13 Noroeste 0 926.3 -- 90
2020-11-02 00:00:00 14 2 Noroeste 8 Oeste 0 926.3 -- 88
2020-11-01 23:00:00 13.9 5 Noroeste 9 Sudoeste 0 926.5 -- 89
2020-11-01 22:00:00 13.2 2 Norte 7 Noroeste 0 926.6 -- 93
2020-11-01 21:00:00 13.1 3 Noroeste 8 Norte 0 926.6 -- 92
2020-11-01 20:00:00 14 3 Este 8 Norte 0 926.6 -- 91
2020-11-01 19:00:00 14.3 4 Norte 12 Sudeste 0 926.6 -- 91
2020-11-01 18:00:00 14.8 6 Nordeste 16 Nordeste 0 926.4 -- 89
2020-11-01 17:00:00 15.6 6 Nordeste 14 Este 0 926.4 -- 86
2020-11-01 16:00:00 16.1 7 Nordeste 15 Este 0 926.6 -- 84
2020-11-01 15:00:00 15.9 5 Nordeste 12 Nordeste 0 926.8 -- 85
2020-11-01 14:00:00 16 6 Nordeste 12 Este 0 927.4 -- 84
2020-11-01 13:00:00 15.4 9 Este 14 Nordeste 0 927.9 -- 86
2020-11-01 12:00:00 15 7 Este 13 Nordeste 0 928.5 -- 87
2020-11-01 11:00:00 14.4 4 Nordeste 11 Nordeste 0 928.8 -- 90
2020-11-01 10:00:00 14 4 Nordeste 11 Este 0 928.5 -- 93
2020-11-01 09:00:00 12.8 5 Norte 14 Norte 0 927.8 -- 94
2020-11-01 08:00:00 12.5 4 Noroeste 18 Norte 0 927 -- 93
2020-11-01 07:00:00 12.7 5 Norte 18 Norte 0 927.4 -- 93
2020-11-01 06:00:00 12.7 4 Nordeste 10 Este 0 927.2 -- 92
2020-11-01 05:00:00 12.8 3 Norte 7 Norte 0 927.5 -- 92
2020-11-01 04:00:00 12.6 4 Nordeste 12 Este 0 927.9 -- 91
2020-11-01 03:00:00 13 8 Noroeste 18 Nordeste 0 928.1 -- 90
2020-11-01 02:00:00 12.8 6 Norte 13 Nordeste 0 928 -- 90
2020-11-01 01:00:00 13 6 Este 10 Este 0 928.5 -- 89
2020-11-01 00:00:00 13.3 4 Nordeste 14 Este 0 928.6 -- 86
2020-10-31 23:00:00 13.2 3 Este 13 Nordeste 0 928.5 -- 85
2020-10-31 22:00:00 13.5 4 Nordeste 8 Norte 0 928.5 -- 83
2020-10-31 21:00:00 13.9 2 Noroeste 7 Nordeste 0 928.4 -- 81
2020-10-31 20:00:00 13.7 3 Sudoeste 8 Sur 0 928.3 -- 83
2020-10-31 19:00:00 14.4 3 Norte 12 Noroeste 0 928 -- 79
2020-10-31 18:00:00 15.8 5 Oeste 12 Oeste 0 927.9 -- 72
2020-10-31 17:00:00 17.2 5 Oeste 22 Oeste 0 928.4 -- 68
2020-10-31 16:00:00 18.3 8 Sudoeste 24 Sudoeste 0 927.8 -- 64
2020-10-31 15:00:00 18.9 10 Sudoeste 24 Sudoeste 0 927.6 -- 63
2020-10-31 14:00:00 19.3 9 Sudoeste 30 Sudoeste 0 928.2 -- 59
2020-10-31 13:00:00 17.7 9 Sudoeste 28 Sudoeste 0 928.7 -- 65
2020-10-31 12:00:00 16.3 3 Sudeste 19 Sudeste 0 928.8 -- 77
2020-10-31 11:00:00 15.1 8 Este 14 Este 0 929 -- 84
2020-10-31 10:00:00 12.4 6 Este 12 Nordeste 0 928.4 -- 93
2020-10-31 09:00:00 11.4 3 Nordeste 7 Norte 0 928.8 -- 95
2020-10-31 08:00:00 9.6 5 Oeste 15 Oeste 0 928.7 -- 95
2020-10-31 07:00:00 10 4 Sudeste 14 Noroeste 0 928 -- 93
2020-10-31 06:00:00 10.1 4 Nordeste 11 Nordeste 0 928.3 -- 94
2020-10-31 05:00:00 9.3 4 Sur 13 Nordeste 0 928.1 -- 94
2020-10-31 04:00:00 8.8 6 Oeste 13 Noroeste 0 927.9 -- 93
2020-10-31 03:00:00 9 3 Sudoeste 14 Sudoeste 0 927.8 -- 92
2020-10-31 02:00:00 9.5 8 Oeste 13 Noroeste 0 928 -- 90
2020-10-31 01:00:00 9.9 3 Sudoeste 17 Noroeste 0 928 -- 89
2020-10-31 00:00:00 10.6 5 Sudeste 18 Este 0 927.8 -- 87
2020-10-30 23:00:00 10.1 9 Noroeste 16 Norte 0 928.1 -- 90
2020-10-30 22:00:00 9.8 5 Sur 11 Sudoeste 0 928.1 -- 86
2020-10-30 21:00:00 9.8 8 Noroeste 12 Sudoeste 0 928.2 -- 89
2020-10-30 20:00:00 10.7 7 Noroeste 12 Oeste 0 928.1 -- 86
2020-10-30 19:00:00 11.8 9 Noroeste 13 Noroeste 0 927.8 -- 82
2020-10-30 18:00:00 14 0 Calma 9 Este 0 927.5 -- 73
2020-10-30 17:00:00 16 5 Este 12 Nordeste 0 927.5 -- 63
2020-10-30 16:00:00 17.3 5 Nordeste 12 Nordeste 0 927.6 -- 62
2020-10-30 15:00:00 16.9 8 Sudeste 16 Este 0 927.8 -- 64
2020-10-30 14:00:00 15.8 6 Este 14 Nordeste 0 928.2 -- 70
2020-10-30 13:00:00 14.5 5 Este 16 Este 0 928.8 -- 74
2020-10-30 12:00:00 12.6 6 Este 12 Este 0 929.4 -- 78
2020-10-30 11:00:00 10.5 5 Este 11 Este 0.2 929.6 -- 87
2020-10-30 10:00:00 8.2 7 Este 13 Nordeste 0 929.7 -- 94
2020-10-30 09:00:00 6 5 Noroeste 10 Norte 0 929.6 -- 96
2020-10-30 08:00:00 4.2 3 Noroeste 9 Norte 0 929.1 -- 96
2020-10-30 07:00:00 4.1 4 Noroeste 10 Noroeste 0 929 -- 96
2020-10-30 06:00:00 4 6 Noroeste 10 Noroeste 0 929 -- 95
2020-10-30 05:00:00 4.1 6 Noroeste 11 Noroeste 0 928.8 -- 95
2020-10-30 04:00:00 4.4 5 Noroeste 11 Norte 0 928.9 -- 95
2020-10-30 03:00:00 4.7 8 Noroeste 12 Noroeste 0 928.9 -- 95
2020-10-30 02:00:00 4.9 4 Noroeste 10 Noroeste 0 929 -- 94
2020-10-30 01:00:00 5.6 7 Noroeste 10 Noroeste 0 928.9 -- 95
2020-10-30 00:00:00 4.8 5 Noroeste 10 Noroeste 0 929 -- 93
2020-10-29 23:00:00 5.4 8 Noroeste 14 Noroeste 0 929.1 -- 94
2020-10-29 22:00:00 5.4 7 Noroeste 12 Noroeste 0 928.9 -- 91
2020-10-29 21:00:00 6.2 8 Noroeste 13 Noroeste 0 928.6 -- 90
2020-10-29 20:00:00 7.8 6 Noroeste 10 Noroeste 0 928.5 -- 88
2020-10-29 19:00:00 9.4 5 Noroeste 8 Noroeste 0 928.4 -- 82
2020-10-29 18:00:00 11.3 4 Nordeste 12 Nordeste 0 927.9 -- 75
2020-10-29 17:00:00 12.8 7 Este 14 Nordeste 0 928 -- 73
2020-10-29 16:00:00 14.3 5 Este 12 Este 0 928.2 -- 65
2020-10-29 15:00:00 14.3 7 Este 13 Este 0 928.5 -- 69
2020-10-29 14:00:00 13.8 4 Este 11 Nordeste 0 929.1 -- 70
2020-10-29 13:00:00 12.3 5 Nordeste 14 Este 0 929.2 -- 74
2020-10-29 12:00:00 9.8 7 Este 14 Este 0 929.6 -- 87
2020-10-29 11:00:00 6.6 4 Este 10 Nordeste 0 929.6 -- 96
2020-10-29 10:00:00 5.2 3 Este 7 Norte 0 929.3 -- 96
2020-10-29 09:00:00 3.8 0 Calma 12 Noroeste 0 929.2 -- 96
2020-10-29 08:00:00 3.1 3 Noroeste 10 Noroeste 0 928.8 -- 95
2020-10-29 07:00:00 2.4 6 Noroeste 13 Noroeste 0 928.6 -- 95
2020-10-29 06:00:00 2.3 12 Noroeste 15 Noroeste 0 928.4 -- 94
2020-10-29 05:00:00 2.7 7 Noroeste 13 Noroeste 0 928.5 -- 94
2020-10-29 04:00:00 3.3 6 Noroeste 13 Noroeste 0 928.5 -- 94
2020-10-29 03:00:00 3.6 8 Noroeste 14 Noroeste 0 928.9 -- 93
2020-10-29 02:00:00 4.1 6 Noroeste 14 Noroeste 0 928.7 -- 93
2020-10-29 01:00:00 4.7 7 Noroeste 14 Oeste 0 928.6 -- 92
2020-10-29 00:00:00 5.9 7 Noroeste 10 Noroeste 0 928.7 -- 91
2020-10-28 23:00:00 6.8 5 Oeste 9 Sudoeste 0 928.4 -- 88
2020-10-28 22:00:00 7.5 6 Oeste 17 Oeste 0 928.4 -- 88
2020-10-28 21:00:00 7.8 8 Oeste 15 Oeste 0 928.1 -- 88
2020-10-28 20:00:00 8.2 7 Oeste 13 Oeste 0 927.7 -- 88
2020-10-28 19:00:00 9.9 6 Oeste 12 Oeste 0 927.4 -- 86
2020-10-28 18:00:00 11.2 4 Oeste 15 Oeste 0 927.1 -- 79
2020-10-28 17:00:00 12.3 7 Noroeste 19 Oeste 0 926.8 -- 72
2020-10-28 16:00:00 13.4 9 Oeste 18 Sudoeste 0 926.2 -- 64
2020-10-28 15:00:00 12.7 6 Oeste 27 Oeste 0 926.7 -- 71
2020-10-28 14:00:00 13.2 6 Oeste 31 Oeste 0 926.5 -- 69
2020-10-28 13:00:00 14.5 13 Oeste 23 Oeste 0 926.1 -- 62
2020-10-28 12:00:00 12.4 7 Oeste 20 Oeste 0 926 -- 72
2020-10-28 11:00:00 11.2 5 Sudoeste 12 Oeste 0 925.8 -- 76
2020-10-28 10:00:00 9.7 4 Noroeste 11 Noroeste 0 925.4 -- 90
2020-10-28 09:00:00 9.1 2 Noroeste 14 Oeste 0 924.6 -- 93
2020-10-28 08:00:00 8.8 6 Oeste 13 Oeste 0.2 923.5 -- 95
2020-10-28 07:00:00 8.8 5 Noroeste 18 Oeste 0.2 923.3 -- 94
2020-10-28 06:00:00 9 4 Noroeste 13 Oeste 0 922.7 -- 94
2020-10-28 05:00:00 8.9 3 Oeste 19 Sudoeste 0 922 -- 91
2020-10-28 04:00:00 9.2 9 Sudoeste 24 Sudoeste 0 921.9 -- 88
2020-10-28 03:00:00 9.5 9 Oeste 19 Sudoeste 0.2 922.3 -- 91
2020-10-28 02:00:00 9.7 10 Oeste 29 Oeste 0 922.2 -- 93
2020-10-28 01:00:00 10.3 10 Oeste 23 Oeste 0.2 922 -- 94
2020-10-28 00:00:00 11.5 8 Oeste 26 Sudoeste 0.2 921.5 -- 93
2020-10-27 23:00:00 10.9 4 Sudoeste 13 Sudoeste 0 921.5 -- 94
2020-10-27 22:00:00 11.4 6 Oeste 23 Oeste 0 921.3 -- 92
2020-10-27 21:00:00 11.3 9 Oeste 21 Oeste 0 921 -- 92
2020-10-27 20:00:00 11.5 6 Sudoeste 22 Sudoeste 0 920.7 -- 89
2020-10-27 19:00:00 11.6 6 Oeste 27 Sudoeste 0 920.4 -- 87
2020-10-27 18:00:00 11.3 5 Sudeste 20 Sudoeste 0 920 -- 88
2020-10-27 17:00:00 10.8 5 Nordeste 14 Sudoeste 0.2 920.4 -- 91
2020-10-27 16:00:00 10.4 3 Este 11 Este 0 920.6 -- 93
2020-10-27 15:00:00 10.1 3 Nordeste 14 Nordeste 0.6 920.7 -- 94
2020-10-27 14:00:00 10.7 4 Sudoeste 21 Noroeste 0.6 920.9 -- 90
2020-10-27 13:00:00 10.5 4 Norte 16 Nordeste 0.2 921.3 -- 90
2020-10-27 12:00:00 10.9 8 Nordeste 21 Oeste 0 921.8 -- 83
2020-10-27 11:00:00 9.8 4 Nordeste 14 Este 0 921.9 -- 89
2020-10-27 10:00:00 8.4 8 Nordeste 18 Nordeste 0 921.7 -- 91
2020-10-27 09:00:00 7.5 4 Nordeste 11 Nordeste 0 921.6 -- 91
2020-10-27 08:00:00 7 3 Este 9 Nordeste 0 921.4 -- 92
2020-10-27 07:00:00 7 4 Este 9 Este 0 921.6 -- 91
2020-10-27 06:00:00 6.8 4 Este 9 Noroeste 0 921.8 -- 91
2020-10-27 05:00:00 6.6 3 Nordeste 8 Este 0 921.9 -- 90
2020-10-27 04:00:00 6.5 0 Calma 9 Nordeste 0 922.2 -- 89
2020-10-27 03:00:00 6.6 4 Nordeste 9 Sur 0 922.6 -- 87
2020-10-27 02:00:00 6.9 4 Sudoeste 22 Sudoeste 0 922.8 -- 83
2020-10-27 01:00:00 6.8 8 Oeste 22 Oeste 0 922.7 -- 80
2020-10-27 00:00:00 6.7 10 Oeste 24 Oeste 0 923.4 -- 85
2020-10-26 23:00:00 6.4 8 Oeste 30 Oeste 0 923.8 -- 88
2020-10-26 22:00:00 6.6 10 Oeste 26 Oeste 0 923.4 -- 90
2020-10-26 21:00:00 6.1 8 Oeste 30 Noroeste 0 923.5 -- 89
2020-10-26 20:00:00 6.8 11 Oeste 33 Sudoeste 0 923.5 -- 86
2020-10-26 19:00:00 6.8 8 Oeste 24 Oeste 0 923.1 -- 84
2020-10-26 18:00:00 7.8 9 Oeste 32 Oeste 0 923 -- 79
2020-10-26 17:00:00 8.6 15 Oeste 36 Oeste 0 922.9 -- 74
2020-10-26 16:00:00 9.6 14 Oeste 35 Oeste 0 922.7 -- 73
2020-10-26 15:00:00 9.8 13 Oeste 38 Oeste 0 922.6 -- 72
2020-10-26 14:00:00 9 11 Oeste 31 Noroeste 0 923.1 -- 84
2020-10-26 13:00:00 8.8 11 Oeste 30 Oeste 0.2 923.3 -- 83
2020-10-26 12:00:00 8.8 12 Oeste 31 Noroeste 0 923.4 -- 80
2020-10-26 11:00:00 7.9 10 Oeste 31 Oeste 0 923 -- 84
2020-10-26 10:00:00 6.8 11 Oeste 23 Oeste 0 922.9 -- 91
2020-10-26 09:00:00 5 9 Oeste 21 Oeste 0 922.4 -- 94
2020-10-26 08:00:00 4.2 9 Oeste 20 Oeste 0 921.2 -- 94
2020-10-26 07:00:00 4 6 Oeste 16 Oeste 0 920.8 -- 94
2020-10-26 06:00:00 3.8 8 Oeste 19 Oeste 0 920.3 -- 94
2020-10-26 05:00:00 3.3 9 Oeste 19 Oeste 0 919.5 -- 94
2020-10-26 04:00:00 3.4 7 Noroeste 20 Oeste 0 919 -- 94
2020-10-26 03:00:00 3.7 9 Oeste 25 Oeste 1.2 918.8 -- 94
2020-10-26 02:00:00 3.8 11 Oeste 23 Oeste 1.4 918.8 -- 93
2020-10-26 01:00:00 4.1 8 Noroeste 22 Oeste 0.2 918.5 -- 93
2020-10-26 00:00:00 3.9 10 Oeste 26 Oeste 0 918.1 -- 91